Latest Weather Observations for The Monument

IDQ60801

Issued at 2:02 pm EST Friday 28 April 2017 (issued every 30 minutes, with the page automatically refreshed every 10 minutes)

About weather observations | Map of weather stations | Latest weather observations for QLD | Other Formats
Station Details ID: 037034 Name: THE MONUMENT AIRPORT Lat: -21.81 Lon: 139.93 Height: 288.4 m
Data from the previous 72 hours. | See also: Recent months at The Monument
Date/Time
EST
Temp
°C
App
Temp
°C
Dew
Point
°C
Rel
Hum
%
Delta-T
°C
Wind Press
QNH
hPa
Press
MSL
hPa
Rain since
9am
mm
Dir  Spd
km/h
Gust
km/h
Spd
kts
Gust
kts
28/02:00pm 22.6 15.1 -4.5 16 11.4 SSE 26 37 14 20 1019.9 1018.4 0.0
28/01:30pm 22.0 15.0 -3.4 18 10.8 SE 24 35 13 19 1020.5 1018.9 0.0
28/01:00pm 21.7 14.8 -2.9 19 10.5 SSE 24 37 13 20 1020.9 1019.4 0.0
28/12:30pm 20.9 14.3 -2.9 20 10.2 SE 22 32 12 17 1021.5 1020.0 0.0
28/12:00pm 20.0 13.5 -2.3 22 9.5 SE 22 32 12 17 1022.2 1020.7 0.0
28/11:30am 19.2 11.9 -3.0 22 9.3 SE 26 41 14 22 1022.6 1021.1 0.0
28/11:00am 18.8 11.5 -2.7 23 9.0 SE 26 39 14 21 1023.0 1021.5 0.0
28/10:30am 18.2 10.5 -2.7 24 8.7 SE 28 35 15 19 1023.2 1021.7 0.0
28/10:00am 17.6 9.9 -2.6 25 8.4 SE 28 41 15 22 1023.4 1021.9 0.0
28/09:30am 17.0 9.4 -2.1 27 8.0 SE 28 41 15 22 1023.5 1022.0 0.0
28/09:00am 15.1 7.8 -2.8 29 7.2 SE 26 35 14 19 1023.3 1021.8 0.0
28/08:30am 13.9 7.7 -2.9 31 6.7 SE 20 33 11 18 1023.0 1021.5 0.0
28/08:00am 12.4 7.6 -2.6 35 5.9 SSE 13 19 7 10 1022.8 1021.3 0.0
28/07:30am 9.7 6.2 -2.9 41 4.8 SSE 6 9 3 5 1022.6 1021.1 0.0
28/07:00am 9.0 4.5 -2.9 43 4.5 SSE 11 13 6 7 1022.3 1020.8 0.0
28/06:30am 9.6 4.4 -2.7 42 4.7 SSE 15 19 8 10 1021.8 1020.3 0.0
28/06:00am 9.3 4.5 -2.6 43 4.5 S 13 15 7 8 1021.7 1020.2 0.0
28/05:30am 9.1 4.3 -2.5 44 4.4 S 13 15 7 8 1021.7 1020.2 0.0
28/05:00am 8.5 5.0 -3.0 44 4.3 SSE 6 7 3 4 1021.6 1020.1 0.0
28/04:30am 9.0 5.5 -3.2 42 4.6 S 6 7 3 4 1021.5 1020.0 0.0
28/04:00am 9.4 5.9 -3.2 41 4.7 S 6 9 3 5 1021.5 1020.0 0.0
28/03:30am 10.6 6.5 -2.8 39 5.2 SSW 9 11 5 6 1021.7 1020.2 0.0
28/03:00am 11.3 6.9 -2.5 38 5.4 S 11 13 6 7 1021.7 1020.2 0.0
28/02:30am 11.7 7.7 -2.5 37 5.6 S 9 13 5 7 1021.7 1020.2 0.0
28/02:00am 12.4 8.0 -2.6 35 5.9 SSE 11 15 6 8 1021.8 1020.3 0.0
28/01:30am 13.1 7.9 -2.8 33 6.3 S 15 19 8 10 1021.8 1020.3 0.0
28/01:00am 13.8 8.6 -2.6 32 6.5 SSE 15 20 8 11 1021.6 1020.1 0.0
28/12:30am 14.7 9.2 -2.2 31 6.9 SSE 17 24 9 13 1021.7 1020.2 0.0
28/12:00am 14.7 9.6 -2.2 31 6.9 SSE 15 20 8 11 1021.7 1020.2 0.0
 
Date/Time
EST
Temp
°C
App
Temp
°C
Dew
Point
°C
Rel
Hum
%
Delta-T
°C
Wind Press
QNH
hPa
Press
MSL
hPa
Rain since
9am
mm
Dir  Spd
km/h
Gust
km/h
Spd
kts
Gust
kts
27/11:30pm 14.8 9.6 -2.6 30 7.0 SSE 15 20 8 11 1021.8 1020.3 0.0
27/11:00pm 15.5 10.4 -2.0 30 7.2 SSE 15 20 8 11 1022.0 1020.5 0.0
27/10:30pm 16.0 10.5 -2.0 29 7.5 SSE 17 22 9 12 1022.1 1020.6 0.0
27/10:00pm 16.4 10.5 -2.1 28 7.7 SSE 19 24 10 13 1022.3 1020.8 0.0
27/09:30pm 16.8 11.7 -2.3 27 7.9 SSE 15 20 8 11 1022.0 1020.5 0.0
27/09:00pm 17.6 11.7 -2.1 26 8.3 SSE 19 26 10 14 1022.0 1020.5 0.0
27/08:30pm 18.1 12.0 -2.2 25 8.6 SSE 20 30 11 16 1021.5 1020.0 0.0
27/08:00pm 18.3 12.7 -3.2 23 8.9 SSE 17 24 9 13 1021.4 1019.9 0.0
27/07:30pm 19.1 13.0 -2.5 23 9.1 S 20 28 11 15 1021.0 1019.5 0.0
27/07:00pm 19.4 13.2 -2.8 22 9.3 S 20 28 11 15 1020.6 1019.1 0.0
27/06:30pm 20.3 13.4 -2.7 21 9.8 S 24 32 13 17 1020.2 1018.7 0.0
27/06:00pm 21.1 14.2 -2.7 20 10.2 SSE 24 35 13 19 1020.1 1018.6 0.0
27/05:30pm 22.1 15.2 -2.6 19 10.7 SSE 24 33 13 18 1019.6 1018.1 0.0
27/05:00pm 22.6 14.7 -1.5 20 10.7 S 30 43 16 23 1019.4 1017.9 0.0
27/04:30pm 22.6 15.4 -2.2 19 10.9 SSE 26 39 14 21 1019.3 1017.8 0.0
27/04:00pm 23.0 16.3 -1.1 20 10.8 S 24 35 13 19 1019.2 1017.7 0.0
27/03:30pm 22.5 14.6 -1.6 20 10.7 S 30 41 16 22 1019.3 1017.8 0.0
27/03:00pm 22.8 15.4 -0.6 21 10.6 S 28 44 15 24 1019.3 1017.8 0.0
27/02:30pm 23.1 15.8 0.2 22 10.6 S 28 41 15 22 1019.4 1017.9 0.0
27/02:00pm 22.3 14.7 0.8 24 10.0 S 30 43 16 23 1019.6 1018.1 0.0
27/01:40pm 22.0 14.5 1.1 25 9.7 S 30 48 16 26 1019.9 1018.4 0.0
27/01:30pm 22.6 15.2 1.6 25 9.9 S 30 43 16 23 1020.0 1018.5 0.0
27/01:00pm 21.9 14.5 2.1 27 9.4 S 30 43 16 23 1020.6 1019.1 0.0
27/12:31pm 21.5 14.6 2.7 29 9.0 SSE 28 46 15 25 1021.2 1019.7 0.0
27/12:30pm 21.9 14.7 3.1 29 9.1 SSE 30 46 16 25 1021.2 1019.7 0.0
27/12:00pm 21.4 14.5 2.6 29 8.9 SSE 28 37 15 20 1021.7 1020.2 0.0
27/11:31am 20.7 14.1 4.3 34 8.0 SSE 28 46 15 25 1022.1 1020.6 0.0
27/11:30am 20.2 13.2 3.9 34 7.9 SSE 30 46 16 25 1022.1 1020.6 0.0
27/11:00am 20.1 12.7 3.8 34 7.9 SSE 32 43 17 23 1022.3 1020.8 0.0
27/10:30am 19.7 12.7 4.2 36 7.5 SSE 30 43 16 23 1022.3 1020.8 0.0
27/10:00am 19.5 13.2 4.0 36 7.5 SSE 26 33 14 18 1022.4 1020.9 0.0
27/09:30am 18.4 12.9 4.2 39 6.8 SSE 22 33 12 18 1022.2 1020.7 0.0
27/09:00am 16.9 10.6 3.9 42 6.1 SSE 26 35 14 19 1022.0 1020.5 0.0
27/08:30am 16.1 11.0 4.2 45 5.6 SSE 20 28 11 15 1021.7 1020.2 0.0
27/08:00am 15.0 10.0 4.4 49 5.0 SSE 20 30 11 16 1021.5 1020.0 0.0
27/07:30am 14.5 9.5 4.5 51 4.7 S 20 28 11 15 1021.0 1019.5 0.0
27/07:00am 14.2 9.2 4.8 53 4.4 S 20 32 11 17 1020.7 1019.2 0.0
27/06:30am 14.4 9.7 5.0 53 4.5 S 19 24 10 13 1020.2 1018.7 0.0
27/06:00am 14.7 10.0 5.2 53 4.5 S 19 24 10 13 1019.9 1018.4 0.0
27/05:30am 15.0 10.3 5.2 52 4.7 S 19 24 10 13 1019.7 1018.2 0.0
27/05:00am 15.5 10.6 5.1 50 5.0 S 20 32 11 17 1019.6 1018.1 0.0
27/04:30am 15.8 11.4 4.5 47 5.4 S 17 22 9 12 1019.7 1018.2 0.0
27/04:00am 16.4 11.6 4.4 45 5.7 S 19 24 10 13 1019.7 1018.2 0.0
27/03:30am 16.9 11.7 3.6 41 6.3 S 20 26 11 14 1019.6 1018.1 0.0
27/03:00am 17.0 12.3 3.3 40 6.4 S 17 24 9 13 1019.5 1018.0 0.0
27/02:30am 17.4 12.7 3.0 38 6.7 S 17 24 9 13 1019.6 1018.1 0.0
27/02:00am 17.8 12.7 2.9 37 6.9 S 19 26 10 14 1019.7 1018.2 0.0
27/01:30am 18.0 13.2 2.7 36 7.1 S 17 22 9 12 1020.1 1018.6 0.0
27/01:00am 18.5 13.7 2.4 34 7.5 S 17 24 9 13 1020.2 1018.7 0.0
27/12:30am 18.8 13.9 1.8 32 7.8 S 17 24 9 13 1020.2 1018.7 0.0
27/12:00am 19.1 14.1 1.6 31 8.0 S 17 26 9 14 1020.2 1018.7 0.0
 
Date/Time
EST
Temp
°C
App
Temp
°C
Dew
Point
°C
Rel
Hum
%
Delta-T
°C
Wind Press
QNH
hPa
Press
MSL
hPa
Rain since
9am
mm
Dir  Spd
km/h
Gust
km/h
Spd
kts
Gust
kts
26/11:30pm 19.5 14.1 1.5 30 8.3 S 19 28 10 15 1020.2 1018.7 0.0
26/11:00pm 20.0 14.4 1.0 28 8.7 S 20 30 11 16 1020.2 1018.7 0.0
26/10:30pm 20.5 14.0 0.4 26 9.1 S 24 32 13 17 1020.1 1018.6 0.0
26/10:00pm 20.9 14.7 -0.4 24 9.5 S 22 30 12 16 1019.8 1018.3 0.0
26/09:30pm 21.4 15.5 -0.6 23 9.9 S 20 30 11 16 1019.6 1018.1 0.0
26/09:00pm 21.8 16.2 1.5 26 9.5 S 20 26 11 14 1019.4 1017.9 0.0
26/08:30pm 22.2 16.9 2.8 28 9.3 S 20 26 11 14 1019.0 1017.5 0.0
26/08:00pm 22.9 18.0 3.9 29 9.4 S 19 26 10 14 1018.6 1017.1 0.0
26/07:30pm 23.8 18.8 4.7 29 9.6 S 20 26 11 14 1018.4 1016.9 0.0
26/07:00pm 24.1 19.2 5.0 29 9.7 S 20 32 11 17 1018.0 1016.5 0.0
26/06:30pm 24.3 19.4 5.1 29 9.8 S 20 32 11 17 1017.5 1016.0 0.0
26/06:00pm 24.8 19.2 5.6 29 9.9 S 24 35 13 19 1017.1 1015.5 0.0
26/05:30pm 25.3 19.0 5.5 28 10.2 S 28 39 15 21 1016.6 1015.1 0.0
26/05:00pm 26.3 19.9 5.3 26 10.9 S 28 35 15 19 1016.4 1014.9 0.0
26/04:30pm 26.9 21.0 5.8 26 11.1 S 26 37 14 20 1016.3 1014.8 0.0
26/04:00pm 27.2 21.0 6.0 26 11.2 S 28 39 15 21 1016.2 1014.7 0.0
26/03:30pm 27.3 21.5 6.1 26 11.2 S 26 41 14 22 1016.4 1014.9 0.0
26/03:00pm 27.0 20.9 6.4 27 10.9 S 28 41 15 22 1016.8 1015.2 0.0
26/02:30pm 26.3 21.0 6.9 29 10.3 S 24 37 13 20 1017.0 1015.4 0.0
26/02:00pm 26.4 21.0 7.9 31 10.0 S 26 37 14 20 1017.2 1015.6 0.0
26/01:30pm 25.8 19.6 7.9 32 9.7 S 30 41 16 22 1017.6 1016.1 0.0
26/01:00pm 24.4 17.9 8.0 35 8.8 S 32 43 17 23 1018.0 1016.5 0.0
26/12:32pm 26.0 20.2 8.0 32 9.8 S 28 48 15 26 1018.4 1016.9 0.0
26/12:30pm 25.5 20.0 7.6 32 9.6 S 26 48 14 26 1018.4 1016.9 0.0
26/12:00pm 25.7 19.2 8.2 33 9.5 S 32 41 17 22 1018.9 1017.4 0.0
26/11:30am 24.6 18.7 9.0 37 8.5 SSE 30 43 16 23 1019.3 1017.8 0.0
26/11:00am 24.5 18.5 10.0 40 8.1 S 32 44 17 24 1019.8 1018.3 0.0
26/10:30am 23.4 17.2 9.4 41 7.7 S 32 43 17 23 1020.0 1018.5 0.0
26/10:06am 23.4 17.0 9.4 41 7.7 S 33 52 18 28 1020.0 1018.5 0.0
26/10:00am 23.7 17.5 10.0 42 7.6 S 33 46 18 25 1020.0 1018.5 0.0
26/09:30am 22.7 16.6 9.8 44 7.1 S 32 43 17 23 1019.8 1018.3 0.0
26/09:00am 22.4 15.8 9.9 45 6.9 S 35 48 19 26 1019.6 1018.1 0.0
26/08:30am 20.7 15.0 9.9 50 5.9 S 30 41 16 22 1019.3 1017.8 0.0
26/08:00am 21.2 14.9 9.8 48 6.2 S 33 54 18 29 1019.0 1017.5 0.0
26/07:58am 21.2 15.1 9.8 48 6.2 S 32 52 17 28 1019.0 1017.5 0.0
26/07:30am 20.9 16.0 11.3 54 5.4 S 28 39 15 21 1018.9 1017.4 0.0
26/07:00am 20.7 17.4 11.6 56 5.1 S 20 30 11 16 1018.4 1016.9 0.0
26/06:30am 21.1 17.3 12.3 57 5.0 S 24 35 13 19 1018.1 1016.6 0.0
26/06:00am 21.5 18.7 13.2 59 4.8 S 20 32 11 17 1017.4 1015.8 0.0
26/05:30am 22.1 18.1 14.0 60 4.8 S 28 39 15 21 1016.9 1015.3 0.0
26/05:00am 22.6 17.7 14.4 60 4.9 SSW 33 44 18 24 1016.3 1014.8 0.0
26/04:30am 23.0 18.4 14.6 59 5.0 SSW 32 44 17 24 1016.0 1014.5 0.0
26/04:00am 23.4 19.6 14.7 58 5.2 S 28 41 15 22 1015.8 1014.3 0.0
26/03:30am 24.0 19.4 14.7 56 5.6 SSW 32 44 17 24 1015.4 1013.9 0.0
26/03:00am 24.8 20.5 14.3 52 6.3 S 30 43 16 23 1015.3 1013.8 0.0
26/02:30am 25.7 21.3 12.9 45 7.5 S 28 39 15 21 1015.2 1013.7 0.0
26/02:00am 26.2 23.2 11.9 41 8.3 S 19 28 10 15 1015.2 1013.7 0.0
26/01:30am 26.9 23.7 11.8 39 8.8 SSE 20 28 11 15 1015.3 1013.8 0.0
26/01:00am 26.8 24.4 11.3 38 8.9 S 15 20 8 11 1015.2 1013.7 0.0
26/12:30am 27.7 24.9 11.3 36 9.5 S 17 24 9 13 1015.4 1013.9 0.0
26/12:00am 28.6 24.9 10.3 32 10.4 SSW 20 28 11 15 1015.3 1013.8 0.0
 
Date/Time
EST
Temp
°C
App
Temp
°C
Dew
Point
°C
Rel
Hum
%
Delta-T
°C
Wind Press
QNH
hPa
Press
MSL
hPa
Rain since
9am
mm
Dir  Spd
km/h
Gust
km/h
Spd
kts
Gust
kts
25/11:30pm 29.7 24.9 10.3 30 11.1 S 26 37 14 20 1014.9 1013.4 0.0
25/11:00pm 28.8 26.8 8.5 28 11.3 ESE 9 11 5 6 1014.5 1013.0 0.0
25/10:30pm 31.2 28.5 8.8 25 12.6 SE 13 17 7 9 1014.7 1013.2 0.0
25/10:00pm 31.1 28.7 8.8 25 12.6 SSE 11 15 6 8 1014.8 1013.3 0.0
25/09:30pm 31.1 29.1 8.8 25 12.6 S 9 11 5 6 1014.7 1013.2 0.0
25/09:00pm 29.6 28.1 8.6 27 11.7 ESE 6 11 3 6 1014.4 1012.9 0.0
25/08:30pm 29.9 28.5 8.9 27 11.8 SE 6 7 3 4 1013.8 1012.2 0.0
25/08:00pm 30.2 28.7 8.6 26 12.1 SE 6 7 3 4 1013.5 1011.9 0.0
25/07:30pm 31.0 29.4 8.7 25 12.6 SSE 7 7 4 4 1012.9 1011.4 0.0
25/07:00pm 31.5 30.0 8.5 24 12.9 SE 6 7 3 4 1012.7 1011.2 0.0
25/06:30pm 32.4 30.9 8.6 23 13.5 SE 6 7 3 4 1012.5 1011.0 0.0
25/06:00pm 33.3 31.9 8.7 22 14.0 SE 6 7 3 4 1012.3 1010.8 0.0
25/05:30pm 33.8 32.1 8.4 21 14.4 SSE 7 11 4 6 1012.1 1010.6 0.0
25/05:00pm 34.7 32.6 8.4 20 15.0 SSE 9 15 5 8 1011.8 1010.3 0.0
25/04:30pm 34.8 32.8 8.5 20 15.0 S 9 15 5 8 1011.8 1010.3 0.0
25/04:00pm 34.9 31.7 8.6 20 15.1 S 15 20 8 11 1011.7 1010.2 0.0
25/03:30pm 35.4 33.5 9.0 20 15.2 E 9 15 5 8 1011.8 1010.3 0.0
25/03:00pm 34.6 31.8 8.4 20 14.9 E 13 20 7 11 1011.9 1010.4 0.0
25/02:30pm 35.4 33.9 9.0 20 15.2 SE 7 13 4 7 1012.1 1010.6 0.0

Other Formats:

Comma delimited format used in spreadsheet applications
http://www.bom.gov.au/fwo/IDQ60801/IDQ60801.94336.axf

JavaScript Object Notation format (JSON) in row-major order
http://www.bom.gov.au/fwo/IDQ60801/IDQ60801.94336.json